Main page
METAR-TAF:

METAR-TAF

Airports :

Sir Seewoosagur Ramgoolam International Airport

Mauritius, Mauritius

latitude: 20-26S, longitude: 057-40E, elevation: 55 m

Current weather observation

The report was made 23 minutes ago, at 04:00 UTC
Wind 11 kt from the East/Northeast
Temperature 25°C
Humidity 69%
Pressure 1019 hPa
Visibility 10 km or more
Scattered clouds at a height of 1800 ft

METAR: FIMP 170400Z 07011KT 9999 SCT018 25/19 Q1019

Time: 08:23 (04:23 UTC)

Forecast

The report was made 4 hours and 43 minutes ago, at 23:40 UTC
Forecast valid from 17 at 00 UTC to 18 at 06 UTC
Wind 8 kt from the East/Northeast
Visibility 10 km or more
Scattered clouds at a height of 1700 ft
Probability 30% :
Temporary
from 17 at 06 UTC to 17 at 18 UTC
Visibility: 7000 m
Few clouds at a height of 1000 ft
Broken clouds at a height of 1600 ft
Broken clouds at a height of 5000 ft
light rain showers

TAF: FIMP 162340Z 1700/1806 06008KT 9999 SCT017 PROB30 TEMPO 1706/1718 7000 -SHRA FEW010 BKN016 BKN050

Weather observations and forecasts of more than 4000 airports (METAR and TAF reports).

The available stations are represented by yellow and red dots on the map.

Hover mouse over dot to see the name of the station.

Then click to see weather observations and forecasts.

To change the map : click on the green buttons with a black cross to zoom in, on the green button with a dash to zoom out, or on the green arrows for adjacent maps.


METAR-TAF: